sensor_id;sensor_type;location;lat;lon;timestamp;pressure;altitude;pressure_sealevel;temperature;humidity
48041;BME280;33815;48.386;11.738;2024-03-02T00:02:23;95508.81;;;4.77;100.00
48041;BME280;33815;48.386;11.738;2024-03-02T00:04:49;95521.53;;;4.88;100.00
48041;BME280;33815;48.386;11.738;2024-03-02T00:07:14;95528.06;;;4.92;100.00
48041;BME280;33815;48.386;11.738;2024-03-02T00:09:40;95514.88;;;4.86;100.00
48041;BME280;33815;48.386;11.738;2024-03-02T00:12:05;95504.00;;;4.82;100.00
48041;BME280;33815;48.386;11.738;2024-03-02T00:14:31;95496.44;;;4.71;100.00
48041;BME280;33815;48.386;11.738;2024-03-02T00:16:56;95503.53;;;4.69;100.00
48041;BME280;33815;48.386;11.738;2024-03-02T00:19:22;95521.72;;;4.77;100.00
48041;BME280;33815;48.386;11.738;2024-03-02T00:21:47;95515.19;;;4.73;100.00
48041;BME280;33815;48.386;11.738;2024-03-02T00:24:31;95515.22;;;4.63;100.00
48041;BME280;33815;48.386;11.738;2024-03-02T00:26:57;95502.50;;;4.52;100.00
48041;BME280;33815;48.386;11.738;2024-03-02T00:29:22;95511.84;;;4.53;100.00
48041;BME280;33815;48.386;11.738;2024-03-02T00:31:48;95510.09;;;4.53;100.00
48041;BME280;33815;48.386;11.738;2024-03-02T00:34:13;95498.38;;;4.59;100.00
48041;BME280;33815;48.386;11.738;2024-03-02T00:36:41;95502.88;;;4.57;100.00
48041;BME280;33815;48.386;11.738;2024-03-02T00:39:06;95505.59;;;4.55;100.00
48041;BME280;33815;48.386;11.738;2024-03-02T00:41:33;95504.63;;;4.56;100.00
48041;BME280;33815;48.386;11.738;2024-03-02T00:44:01;95503.28;;;4.52;100.00
48041;BME280;33815;48.386;11.738;2024-03-02T00:46:29;95500.16;;;4.49;100.00
48041;BME280;33815;48.386;11.738;2024-03-02T00:48:59;95507.25;;;4.46;100.00
48041;BME280;33815;48.386;11.738;2024-03-02T00:51:34;95488.78;;;4.41;100.00
48041;BME280;33815;48.386;11.738;2024-03-02T00:54:02;95501.50;;;4.53;100.00
48041;BME280;33815;48.386;11.738;2024-03-02T00:56:29;95489.19;;;4.46;100.00
48041;BME280;33815;48.386;11.738;2024-03-02T00:58:55;95485.53;;;4.39;100.00
48041;BME280;33815;48.386;11.738;2024-03-02T01:01:20;95478.31;;;4.43;100.00
48041;BME280;33815;48.386;11.738;2024-03-02T01:03:46;95485.50;;;4.49;100.00
48041;BME280;33815;48.386;11.738;2024-03-02T01:06:12;95491.34;;;4.41;100.00
48041;BME280;33815;48.386;11.738;2024-03-02T01:08:38;95493.28;;;4.39;100.00
48041;BME280;33815;48.386;11.738;2024-03-02T01:11:04;95487.84;;;4.33;100.00
48041;BME280;33815;48.386;11.738;2024-03-02T01:13:30;95495.03;;;4.39;100.00
48041;BME280;33815;48.386;11.738;2024-03-02T01:15:56;95496.94;;;4.37;100.00
48041;BME280;33815;48.386;11.738;2024-03-02T01:18:21;95491.91;;;4.35;100.00
48041;BME280;33815;48.386;11.738;2024-03-02T01:20:47;95483.78;;;4.30;100.00
48041;BME280;33815;48.386;11.738;2024-03-02T01:23:13;95492.06;;;4.34;100.00
48041;BME280;33815;48.386;11.738;2024-03-02T01:25:38;95495.72;;;4.31;100.00
48041;BME280;33815;48.386;11.738;2024-03-02T01:28:04;95490.00;;;4.27;100.00
48041;BME280;33815;48.386;11.738;2024-03-02T01:30:29;95489.06;;;4.28;100.00
48041;BME280;33815;48.386;11.738;2024-03-02T01:32:55;95499.81;;;4.34;100.00
48041;BME280;33815;48.386;11.738;2024-03-02T01:35:20;95500.59;;;4.34;100.00
48041;BME280;33815;48.386;11.738;2024-03-02T01:37:45;95480.41;;;4.20;100.00
48041;BME280;33815;48.386;11.738;2024-03-02T01:40:11;95482.28;;;4.27;100.00
48041;BME280;33815;48.386;11.738;2024-03-02T01:42:39;95506.56;;;4.35;100.00
48041;BME280;33815;48.386;11.738;2024-03-02T01:45:05;95501.03;;;4.29;100.00
48041;BME280;33815;48.386;11.738;2024-03-02T01:47:31;95508.75;;;4.29;100.00
48041;BME280;33815;48.386;11.738;2024-03-02T01:49:57;95504.69;;;4.27;100.00
48041;BME280;33815;48.386;11.738;2024-03-02T01:52:23;95505.91;;;4.33;100.00
48041;BME280;33815;48.386;11.738;2024-03-02T01:54:48;95495.31;;;4.26;100.00
48041;BME280;33815;48.386;11.738;2024-03-02T01:57:14;95493.03;;;4.23;100.00
48041;BME280;33815;48.386;11.738;2024-03-02T01:59:39;95494.09;;;4.20;100.00
48041;BME280;33815;48.386;11.738;2024-03-02T02:02:04;95488.41;;;4.17;100.00
48041;BME280;33815;48.386;11.738;2024-03-02T02:04:29;95500.75;;;4.33;100.00
48041;BME280;33815;48.386;11.738;2024-03-02T02:06:56;95496.25;;;4.25;100.00
48041;BME280;33815;48.386;11.738;2024-03-02T02:09:21;95486.94;;;4.14;100.00
48041;BME280;33815;48.386;11.738;2024-03-02T02:11:47;95493.81;;;4.14;100.00
48041;BME280;33815;48.386;11.738;2024-03-02T02:14:12;95491.66;;;4.09;100.00
48041;BME280;33815;48.386;11.738;2024-03-02T02:16:37;95482.16;;;4.09;100.00
48041;BME280;33815;48.386;11.738;2024-03-02T02:19:03;95469.28;;;4.00;100.00
48041;BME280;33815;48.386;11.738;2024-03-02T02:21:28;95483.66;;;4.02;100.00
48041;BME280;33815;48.386;11.738;2024-03-02T02:23:53;95481.50;;;4.07;100.00
48041;BME280;33815;48.386;11.738;2024-03-02T02:26:19;95463.72;;;4.04;100.00
48041;BME280;33815;48.386;11.738;2024-03-02T02:28:44;95460.47;;;4.02;100.00
48041;BME280;33815;48.386;11.738;2024-03-02T02:31:15;95470.50;;;4.05;100.00
48041;BME280;33815;48.386;11.738;2024-03-02T02:33:40;95472.41;;;4.03;100.00
48041;BME280;33815;48.386;11.738;2024-03-02T02:36:06;95469.97;;;4.02;100.00
48041;BME280;33815;48.386;11.738;2024-03-02T02:38:38;95464.00;;;3.91;100.00
48041;BME280;33815;48.386;11.738;2024-03-02T02:41:05;95445.00;;;3.83;100.00
48041;BME280;33815;48.386;11.738;2024-03-02T02:43:30;95429.53;;;3.73;100.00
48041;BME280;33815;48.386;11.738;2024-03-02T02:45:55;95462.66;;;3.87;100.00
48041;BME280;33815;48.386;11.738;2024-03-02T02:48:21;95451.25;;;3.80;100.00
48041;BME280;33815;48.386;11.738;2024-03-02T02:50:46;95437.41;;;3.71;100.00
48041;BME280;33815;48.386;11.738;2024-03-02T02:53:11;95460.31;;;3.84;100.00
48041;BME280;33815;48.386;11.738;2024-03-02T02:55:39;95458.03;;;3.81;100.00
48041;BME280;33815;48.386;11.738;2024-03-02T02:58:06;95450.00;;;3.74;100.00
48041;BME280;33815;48.386;11.738;2024-03-02T03:00:31;95458.03;;;3.81;100.00
48041;BME280;33815;48.386;11.738;2024-03-02T03:02:56;95470.09;;;3.81;100.00
48041;BME280;33815;48.386;11.738;2024-03-02T03:05:22;95463.19;;;3.81;100.00
48041;BME280;33815;48.386;11.738;2024-03-02T03:07:47;95459.66;;;3.72;100.00
48041;BME280;33815;48.386;11.738;2024-03-02T03:10:15;95461.28;;;3.73;100.00
48041;BME280;33815;48.386;11.738;2024-03-02T03:12:40;95478.66;;;3.81;100.00
48041;BME280;33815;48.386;11.738;2024-03-02T03:15:07;95472.41;;;3.74;100.00
48041;BME280;33815;48.386;11.738;2024-03-02T03:17:33;95475.78;;;3.74;100.00
48041;BME280;33815;48.386;11.738;2024-03-02T03:19:59;95462.22;;;3.63;100.00
48041;BME280;33815;48.386;11.738;2024-03-02T03:22:25;95469.84;;;3.74;100.00
48041;BME280;33815;48.386;11.738;2024-03-02T03:24:51;95477.00;;;3.80;100.00
48041;BME280;33815;48.386;11.738;2024-03-02T03:27:16;95471.06;;;3.80;100.00
48041;BME280;33815;48.386;11.738;2024-03-02T03:29:41;95473.09;;;3.86;100.00
48041;BME280;33815;48.386;11.738;2024-03-02T03:32:07;95473.34;;;3.83;100.00
48041;BME280;33815;48.386;11.738;2024-03-02T03:34:33;95485.56;;;3.81;100.00
48041;BME280;33815;48.386;11.738;2024-03-02T03:36:59;95480.13;;;3.74;100.00
48041;BME280;33815;48.386;11.738;2024-03-02T03:39:24;95482.44;;;3.87;100.00
48041;BME280;33815;48.386;11.738;2024-03-02T03:41:49;95472.13;;;3.87;100.00
48041;BME280;33815;48.386;11.738;2024-03-02T03:44:14;95474.44;;;3.80;100.00
48041;BME280;33815;48.386;11.738;2024-03-02T03:46:40;95472.81;;;3.79;100.00
48041;BME280;33815;48.386;11.738;2024-03-02T03:49:05;95457.75;;;3.74;100.00
48041;BME280;33815;48.386;11.738;2024-03-02T03:51:30;95473.75;;;3.78;100.00
48041;BME280;33815;48.386;11.738;2024-03-02T03:53:56;95463.59;;;3.67;100.00
48041;BME280;33815;48.386;11.738;2024-03-02T03:56:21;95470.38;;;3.68;100.00
48041;BME280;33815;48.386;11.738;2024-03-02T03:58:46;95475.13;;;3.72;100.00
48041;BME280;33815;48.386;11.738;2024-03-02T04:01:12;95474.56;;;3.69;100.00
48041;BME280;33815;48.386;11.738;2024-03-02T04:03:38;95476.06;;;3.71;100.00
48041;BME280;33815;48.386;11.738;2024-03-02T04:06:03;95471.47;;;3.65;100.00
48041;BME280;33815;48.386;11.738;2024-03-02T04:08:28;95462.78;;;3.66;100.00
48041;BME280;33815;48.386;11.738;2024-03-02T04:10:54;95480.84;;;3.76;100.00
48041;BME280;33815;48.386;11.738;2024-03-02T04:13:19;95464.94;;;3.71;100.00
48041;BME280;33815;48.386;11.738;2024-03-02T04:15:44;95479.72;;;3.78;100.00
48041;BME280;33815;48.386;11.738;2024-03-02T04:18:09;95486.00;;;3.76;100.00
48041;BME280;33815;48.386;11.738;2024-03-02T04:20:35;95479.63;;;3.70;100.00
48041;BME280;33815;48.386;11.738;2024-03-02T04:23:00;95481.91;;;3.64;100.00
48041;BME280;33815;48.386;11.738;2024-03-02T04:25:25;95484.47;;;3.64;100.00
48041;BME280;33815;48.386;11.738;2024-03-02T04:27:51;95495.88;;;3.71;100.00
48041;BME280;33815;48.386;11.738;2024-03-02T04:30:16;95494.50;;;3.67;100.00
48041;BME280;33815;48.386;11.738;2024-03-02T04:32:42;95493.56;;;3.68;100.00
48041;BME280;33815;48.386;11.738;2024-03-02T04:35:11;95476.75;;;3.64;100.00
48041;BME280;33815;48.386;11.738;2024-03-02T04:37:37;95496.16;;;3.68;100.00
48041;BME280;33815;48.386;11.738;2024-03-02T04:40:03;95507.13;;;3.70;100.00
48041;BME280;33815;48.386;11.738;2024-03-02T04:42:28;95501.53;;;3.65;100.00
48041;BME280;33815;48.386;11.738;2024-03-02T04:44:53;95508.75;;;3.71;100.00
48041;BME280;33815;48.386;11.738;2024-03-02T04:47:19;95497.22;;;3.65;100.00
48041;BME280;33815;48.386;11.738;2024-03-02T04:49:44;95517.16;;;3.73;100.00
48041;BME280;33815;48.386;11.738;2024-03-02T04:52:09;95497.09;;;3.67;100.00
48041;BME280;33815;48.386;11.738;2024-03-02T04:54:35;95496.66;;;3.62;100.00
48041;BME280;33815;48.386;11.738;2024-03-02T04:57:23;95519.88;;;3.71;100.00
48041;BME280;33815;48.386;11.738;2024-03-02T04:59:48;95521.22;;;3.75;100.00
48041;BME280;33815;48.386;11.738;2024-03-02T05:02:14;95518.78;;;3.74;100.00
48041;BME280;33815;48.386;11.738;2024-03-02T05:04:39;95519.72;;;3.73;100.00
48041;BME280;33815;48.386;11.738;2024-03-02T05:07:05;95521.50;;;3.72;100.00
48041;BME280;33815;48.386;11.738;2024-03-02T05:09:30;95523.81;;;3.66;100.00
48041;BME280;33815;48.386;11.738;2024-03-02T05:11:55;95523.28;;;3.62;100.00
48041;BME280;33815;48.386;11.738;2024-03-02T05:14:39;95526.09;;;3.59;100.00
48041;BME280;33815;48.386;11.738;2024-03-02T05:17:04;95529.50;;;3.59;100.00
48041;BME280;33815;48.386;11.738;2024-03-02T05:19:30;95514.16;;;3.48;100.00
48041;BME280;33815;48.386;11.738;2024-03-02T05:21:55;95516.03;;;3.46;100.00
48041;BME280;33815;48.386;11.738;2024-03-02T05:24:20;95532.06;;;3.59;100.00
48041;BME280;33815;48.386;11.738;2024-03-02T05:26:45;95527.19;;;3.56;100.00
48041;BME280;33815;48.386;11.738;2024-03-02T05:29:11;95539.09;;;3.57;100.00
48041;BME280;33815;48.386;11.738;2024-03-02T05:31:37;95515.63;;;3.41;100.00
48041;BME280;33815;48.386;11.738;2024-03-02T05:34:02;95531.91;;;3.51;100.00
48041;BME280;33815;48.386;11.738;2024-03-02T05:36:27;95532.59;;;3.53;100.00
48041;BME280;33815;48.386;11.738;2024-03-02T05:38:53;95533.28;;;3.55;100.00
48041;BME280;33815;48.386;11.738;2024-03-02T05:41:18;95519.69;;;3.43;100.00
48041;BME280;33815;48.386;11.738;2024-03-02T05:43:43;95535.28;;;3.52;100.00
48041;BME280;33815;48.386;11.738;2024-03-02T05:46:09;95517.78;;;3.36;100.00
48041;BME280;33815;48.386;11.738;2024-03-02T05:48:34;95546.56;;;3.51;100.00
48041;BME280;33815;48.386;11.738;2024-03-02T05:50:59;95540.44;;;3.52;100.00
48041;BME280;33815;48.386;11.738;2024-03-02T05:53:26;95548.31;;;3.50;100.00
48041;BME280;33815;48.386;11.738;2024-03-02T05:55:51;95532.84;;;3.40;100.00
48041;BME280;33815;48.386;11.738;2024-03-02T05:58:21;95535.28;;;3.42;100.00
48041;BME280;33815;48.386;11.738;2024-03-02T06:00:59;95540.06;;;3.47;100.00
48041;BME280;33815;48.386;11.738;2024-03-02T06:03:24;95527.84;;;3.49;100.00
48041;BME280;33815;48.386;11.738;2024-03-02T06:05:49;95551.47;;;3.64;100.00
48041;BME280;33815;48.386;11.738;2024-03-02T06:08:14;95530.72;;;3.55;100.00
48041;BME280;33815;48.386;11.738;2024-03-02T06:10:40;95536.16;;;3.62;100.00
48041;BME280;33815;48.386;11.738;2024-03-02T06:13:05;95542.66;;;3.66;100.00
48041;BME280;33815;48.386;11.738;2024-03-02T06:15:30;95526.91;;;3.59;100.00
48041;BME280;33815;48.386;11.738;2024-03-02T06:17:56;95541.31;;;3.62;100.00
48041;BME280;33815;48.386;11.738;2024-03-02T06:20:21;95530.72;;;3.55;100.00
48041;BME280;33815;48.386;11.738;2024-03-02T06:22:46;95530.72;;;3.55;100.00
48041;BME280;33815;48.386;11.738;2024-03-02T06:25:12;95537.22;;;3.59;100.00
48041;BME280;33815;48.386;11.738;2024-03-02T06:27:38;95537.75;;;3.63;100.00
48041;BME280;33815;48.386;11.738;2024-03-02T06:30:04;95544.97;;;3.69;100.00
48041;BME280;33815;48.386;11.738;2024-03-02T06:32:29;95525.72;;;3.64;100.00
48041;BME280;33815;48.386;11.738;2024-03-02T06:34:54;95548.78;;;3.75;100.00
48041;BME280;33815;48.386;11.738;2024-03-02T06:37:20;95538.88;;;3.70;100.00
48041;BME280;33815;48.386;11.738;2024-03-02T06:39:45;95540.75;;;3.68;100.00
48041;BME280;33815;48.386;11.738;2024-03-02T06:42:10;95541.84;;;3.66;100.00
48041;BME280;33815;48.386;11.738;2024-03-02T06:44:35;95529.50;;;3.59;100.00
48041;BME280;33815;48.386;11.738;2024-03-02T06:47:01;95541.84;;;3.66;100.00
48041;BME280;33815;48.386;11.738;2024-03-02T06:49:26;95526.63;;;3.53;100.00
48041;BME280;33815;48.386;11.738;2024-03-02T06:51:51;95539.41;;;3.64;100.00
48041;BME280;33815;48.386;11.738;2024-03-02T06:54:16;95535.31;;;3.62;100.00
48041;BME280;33815;48.386;11.738;2024-03-02T06:56:42;95512.69;;;3.55;100.00
48041;BME280;33815;48.386;11.738;2024-03-02T06:59:07;95521.91;;;3.68;100.00
48041;BME280;33815;48.386;11.738;2024-03-02T07:01:32;95520.56;;;3.64;100.00
48041;BME280;33815;48.386;11.738;2024-03-02T07:03:57;95536.97;;;3.72;100.00
48041;BME280;33815;48.386;11.738;2024-03-02T07:06:23;95518.78;;;3.64;100.00
48041;BME280;33815;48.386;11.738;2024-03-02T07:08:48;95541.19;;;3.73;100.00
48041;BME280;33815;48.386;11.738;2024-03-02T07:11:13;95538.31;;;3.67;100.00
48041;BME280;33815;48.386;11.738;2024-03-02T07:13:39;95540.78;;;3.78;100.00
48041;BME280;33815;48.386;11.738;2024-03-02T07:16:04;95555.84;;;3.92;100.00
48041;BME280;33815;48.386;11.738;2024-03-02T07:18:35;95538.88;;;3.80;100.00
48041;BME280;33815;48.386;11.738;2024-03-02T07:21:07;95561.28;;;3.89;100.00
48041;BME280;33815;48.386;11.738;2024-03-02T07:23:32;95567.13;;;3.91;100.00
48041;BME280;33815;48.386;11.738;2024-03-02T07:25:58;95544.59;;;3.93;100.00
48041;BME280;33815;48.386;11.738;2024-03-02T07:28:25;95540.38;;;3.92;100.00
48041;BME280;33815;48.386;11.738;2024-03-02T07:31:00;95549.47;;;4.06;100.00
48041;BME280;33815;48.386;11.738;2024-03-02T07:33:26;95561.28;;;4.19;100.00
48041;BME280;33815;48.386;11.738;2024-03-02T07:35:52;95552.47;;;4.31;100.00
48041;BME280;33815;48.386;11.738;2024-03-02T07:38:17;95535.63;;;4.37;100.00
48041;BME280;33815;48.386;11.738;2024-03-02T07:40:42;95540.31;;;4.71;100.00
48041;BME280;33815;48.386;11.738;2024-03-02T07:43:08;95541.63;;;4.94;100.00
48041;BME280;33815;48.386;11.738;2024-03-02T07:45:33;95564.63;;;5.25;100.00
48041;BME280;33815;48.386;11.738;2024-03-02T07:48:01;95556.78;;;5.45;100.00
48041;BME280;33815;48.386;11.738;2024-03-02T07:50:26;95552.72;;;5.42;100.00
48041;BME280;33815;48.386;11.738;2024-03-02T07:52:52;95563.97;;;5.51;100.00
48041;BME280;33815;48.386;11.738;2024-03-02T07:55:17;95569.75;;;5.35;100.00
48041;BME280;33815;48.386;11.738;2024-03-02T07:57:43;95567.66;;;5.48;100.00
48041;BME280;33815;48.386;11.738;2024-03-02T08:00:08;95566.03;;;5.47;100.00
48041;BME280;33815;48.386;11.738;2024-03-02T08:02:34;95556.78;;;5.45;100.00
48041;BME280;33815;48.386;11.738;2024-03-02T08:05:01;95581.78;;;5.54;100.00
48041;BME280;33815;48.386;11.738;2024-03-02T08:07:26;95566.78;;;5.58;100.00
48041;BME280;33815;48.386;11.738;2024-03-02T08:09:51;95582.00;;;5.61;100.00
48041;BME280;33815;48.386;11.738;2024-03-02T08:12:16;95586.84;;;5.74;100.00
48041;BME280;33815;48.386;11.738;2024-03-02T08:14:43;95562.53;;;5.84;100.00
48041;BME280;33815;48.386;11.738;2024-03-02T08:17:08;95557.88;;;5.98;100.00
48041;BME280;33815;48.386;11.738;2024-03-02T08:19:35;95579.22;;;6.00;100.00
48041;BME280;33815;48.386;11.738;2024-03-02T08:22:01;95579.38;;;5.98;100.00
48041;BME280;33815;48.386;11.738;2024-03-02T08:24:27;95588.91;;;5.98;100.00
48041;BME280;33815;48.386;11.738;2024-03-02T08:26:52;95585.81;;;5.84;100.00
48041;BME280;33815;48.386;11.738;2024-03-02T08:29:17;95577.72;;;5.79;100.00
48041;BME280;33815;48.386;11.738;2024-03-02T08:31:43;95598.91;;;6.11;100.00
48041;BME280;33815;48.386;11.738;2024-03-02T08:34:08;95593.00;;;6.00;100.00
48041;BME280;33815;48.386;11.738;2024-03-02T08:36:34;95597.66;;;6.33;100.00
48041;BME280;33815;48.386;11.738;2024-03-02T08:38:59;95583.09;;;6.50;100.00
48041;BME280;33815;48.386;11.738;2024-03-02T08:41:24;95593.44;;;6.32;100.00
48041;BME280;33815;48.386;11.738;2024-03-02T08:43:50;95608.34;;;6.38;100.00
48041;BME280;33815;48.386;11.738;2024-03-02T08:46:15;95605.84;;;6.64;100.00
48041;BME280;33815;48.386;11.738;2024-03-02T08:48:40;95598.38;;;7.06;100.00
48041;BME280;33815;48.386;11.738;2024-03-02T08:51:06;95605.94;;;7.60;100.00
48041;BME280;33815;48.386;11.738;2024-03-02T08:53:33;95597.34;;;7.59;100.00
48041;BME280;33815;48.386;11.738;2024-03-02T08:55:58;95600.19;;;7.82;100.00
48041;BME280;33815;48.386;11.738;2024-03-02T08:58:23;95597.84;;;8.14;100.00
48041;BME280;33815;48.386;11.738;2024-03-02T09:00:49;95605.78;;;7.61;100.00
48041;BME280;33815;48.386;11.738;2024-03-02T09:03:14;95597.28;;;7.77;100.00
48041;BME280;33815;48.386;11.738;2024-03-02T09:05:40;95591.00;;;7.53;100.00
48041;BME280;33815;48.386;11.738;2024-03-02T09:08:05;95594.00;;;7.75;100.00
48041;BME280;33815;48.386;11.738;2024-03-02T09:10:30;95593.88;;;7.85;100.00
48041;BME280;33815;48.386;11.738;2024-03-02T09:12:56;95597.00;;;8.05;100.00
48041;BME280;33815;48.386;11.738;2024-03-02T09:15:21;95601.91;;;8.16;100.00
48041;BME280;33815;48.386;11.738;2024-03-02T09:17:46;95602.34;;;8.03;100.00
48041;BME280;33815;48.386;11.738;2024-03-02T09:20:12;95596.63;;;7.83;100.00
48041;BME280;33815;48.386;11.738;2024-03-02T09:22:37;95598.78;;;8.04;100.00
48041;BME280;33815;48.386;11.738;2024-03-02T09:25:03;95594.28;;;8.06;100.00
48041;BME280;33815;48.386;11.738;2024-03-02T09:27:28;95592.50;;;8.15;100.00
48041;BME280;33815;48.386;11.738;2024-03-02T09:29:53;95591.09;;;8.46;100.00
48041;BME280;33815;48.386;11.738;2024-03-02T09:32:18;95578.28;;;8.52;100.00
48041;BME280;33815;48.386;11.738;2024-03-02T09:34:44;95597.44;;;8.60;100.00
48041;BME280;33815;48.386;11.738;2024-03-02T09:37:09;95594.91;;;8.09;100.00
48041;BME280;33815;48.386;11.738;2024-03-02T09:39:34;95590.97;;;7.88;100.00
48041;BME280;33815;48.386;11.738;2024-03-02T09:42:00;95586.19;;;7.67;100.00
48041;BME280;33815;48.386;11.738;2024-03-02T09:44:26;95597.56;;;7.66;100.00
48041;BME280;33815;48.386;11.738;2024-03-02T09:46:51;95594.31;;;7.72;100.00
48041;BME280;33815;48.386;11.738;2024-03-02T09:49:17;95589.16;;;7.80;100.00
48041;BME280;33815;48.386;11.738;2024-03-02T09:51:47;95586.66;;;7.62;100.00
48041;BME280;33815;48.386;11.738;2024-03-02T09:54:13;95579.75;;;7.79;100.00
48041;BME280;33815;48.386;11.738;2024-03-02T09:56:40;95593.50;;;8.31;100.00
48041;BME280;33815;48.386;11.738;2024-03-02T09:59:05;95584.31;;;8.45;100.00
48041;BME280;33815;48.386;11.738;2024-03-02T10:01:31;95570.94;;;8.39;100.00
48041;BME280;33815;48.386;11.738;2024-03-02T10:03:59;95579.09;;;8.61;100.00
48041;BME280;33815;48.386;11.738;2024-03-02T10:06:25;95572.94;;;8.70;100.00
48041;BME280;33815;48.386;11.738;2024-03-02T10:08:51;95568.75;;;9.34;100.00
48041;BME280;33815;48.386;11.738;2024-03-02T10:16:35;95571.59;;;9.95;100.00
48041;BME280;33815;48.386;11.738;2024-03-02T10:19:21;95567.13;;;9.81;100.00
48041;BME280;33815;48.386;11.738;2024-03-02T10:21:50;95565.66;;;9.78;100.00
48041;BME280;33815;48.386;11.738;2024-03-02T10:24:17;95558.53;;;9.72;100.00
48041;BME280;33815;48.386;11.738;2024-03-02T10:26:42;95564.84;;;9.77;100.00
48041;BME280;33815;48.386;11.738;2024-03-02T10:29:11;95553.56;;;9.93;100.00
48041;BME280;33815;48.386;11.738;2024-03-02T10:31:41;95555.84;;;10.20;100.00
48041;BME280;33815;48.386;11.738;2024-03-02T10:34:07;95552.66;;;10.33;100.00
48041;BME280;33815;48.386;11.738;2024-03-02T10:36:34;95539.50;;;10.72;100.00
48041;BME280;33815;48.386;11.738;2024-03-02T10:39:06;95555.81;;;11.19;99.31
48041;BME280;33815;48.386;11.738;2024-03-02T10:41:36;95552.56;;;11.02;98.37
48041;BME280;33815;48.386;11.738;2024-03-02T10:44:03;95545.66;;;10.94;93.03
48041;BME280;33815;48.386;11.738;2024-03-02T10:46:30;95535.56;;;10.38;96.56
48041;BME280;33815;48.386;11.738;2024-03-02T10:49:00;95547.06;;;10.82;95.36
48041;BME280;33815;48.386;11.738;2024-03-02T10:51:26;95532.47;;;10.58;94.47
48041;BME280;33815;48.386;11.738;2024-03-02T10:53:54;95545.56;;;10.88;96.49
48041;BME280;33815;48.386;11.738;2024-03-02T10:56:29;95523.00;;;11.40;93.09
48041;BME280;33815;48.386;11.738;2024-03-02T11:01:41;95518.66;;;11.47;90.47
48041;BME280;33815;48.386;11.738;2024-03-02T11:04:08;95514.13;;;11.71;90.21
48041;BME280;33815;48.386;11.738;2024-03-02T11:06:35;95515.09;;;11.18;88.18
48041;BME280;33815;48.386;11.738;2024-03-02T11:09:07;95513.47;;;11.17;87.82
48041;BME280;33815;48.386;11.738;2024-03-02T11:11:40;95501.16;;;11.11;88.95
48041;BME280;33815;48.386;11.738;2024-03-02T11:14:12;95515.03;;;11.26;88.54
48041;BME280;33815;48.386;11.738;2024-03-02T11:16:38;95509.16;;;11.39;92.07
48041;BME280;33815;48.386;11.738;2024-03-02T11:19:08;95497.41;;;11.65;86.14
48041;BME280;33815;48.386;11.738;2024-03-02T11:21:35;95486.84;;;11.37;86.33
48041;BME280;33815;48.386;11.738;2024-03-02T11:26:46;95499.28;;;11.71;86.49
48041;BME280;33815;48.386;11.738;2024-03-02T11:32:18;95498.63;;;12.21;85.52
48041;BME280;33815;48.386;11.738;2024-03-02T11:34:47;95483.31;;;11.96;83.01
48041;BME280;33815;48.386;11.738;2024-03-02T11:37:15;95473.91;;;12.02;81.61
48041;BME280;33815;48.386;11.738;2024-03-02T11:39:41;95482.09;;;12.13;82.66
48041;BME280;33815;48.386;11.738;2024-03-02T11:42:07;95483.13;;;11.97;82.36
48041;BME280;33815;48.386;11.738;2024-03-02T11:44:38;95458.63;;;11.62;82.11
48041;BME280;33815;48.386;11.738;2024-03-02T11:47:06;95449.75;;;11.56;83.48
48041;BME280;33815;48.386;11.738;2024-03-02T11:49:46;95455.97;;;12.13;84.80
48041;BME280;33815;48.386;11.738;2024-03-02T11:52:13;95458.06;;;12.03;81.42
48041;BME280;33815;48.386;11.738;2024-03-02T11:54:40;95444.00;;;12.04;83.20
48041;BME280;33815;48.386;11.738;2024-03-02T11:57:07;95437.78;;;12.27;85.04
48041;BME280;33815;48.386;11.738;2024-03-02T11:59:32;95438.94;;;12.46;83.09
48041;BME280;33815;48.386;11.738;2024-03-02T12:01:59;95433.13;;;12.50;82.75
48041;BME280;33815;48.386;11.738;2024-03-02T12:04:25;95431.31;;;12.79;81.62
48041;BME280;33815;48.386;11.738;2024-03-02T12:06:59;95432.34;;;12.57;79.04
48041;BME280;33815;48.386;11.738;2024-03-02T12:09:27;95426.66;;;12.75;76.26
48041;BME280;33815;48.386;11.738;2024-03-02T12:12:11;95424.41;;;12.72;78.21
48041;BME280;33815;48.386;11.738;2024-03-02T12:14:38;95415.63;;;12.79;76.04
48041;BME280;33815;48.386;11.738;2024-03-02T12:17:06;95420.06;;;12.85;79.42
48041;BME280;33815;48.386;11.738;2024-03-02T12:19:33;95419.38;;;12.70;75.31
48041;BME280;33815;48.386;11.738;2024-03-02T12:21:59;95410.25;;;12.53;74.90
48041;BME280;33815;48.386;11.738;2024-03-02T12:24:30;95417.44;;;12.50;77.08
48041;BME280;33815;48.386;11.738;2024-03-02T12:26:56;95414.75;;;12.65;77.44
48041;BME280;33815;48.386;11.738;2024-03-02T12:29:22;95409.63;;;12.85;76.32
48041;BME280;33815;48.386;11.738;2024-03-02T12:31:50;95405.97;;;13.22;73.82
48041;BME280;33815;48.386;11.738;2024-03-02T12:34:16;95401.16;;;13.32;72.58
48041;BME280;33815;48.386;11.738;2024-03-02T12:36:42;95398.31;;;13.20;73.91
48041;BME280;33815;48.386;11.738;2024-03-02T12:39:10;95399.19;;;13.34;73.14
48041;BME280;33815;48.386;11.738;2024-03-02T12:41:36;95395.44;;;13.57;72.05
48041;BME280;33815;48.386;11.738;2024-03-02T12:44:02;95386.19;;;13.94;72.85
48041;BME280;33815;48.386;11.738;2024-03-02T12:46:28;95384.19;;;13.69;70.47
48041;BME280;33815;48.386;11.738;2024-03-02T12:48:53;95370.91;;;13.91;72.95
48041;BME280;33815;48.386;11.738;2024-03-02T12:51:19;95380.59;;;14.24;70.70
48041;BME280;33815;48.386;11.738;2024-03-02T12:53:44;95371.50;;;14.20;70.06
48041;BME280;33815;48.386;11.738;2024-03-02T12:56:10;95371.50;;;14.13;68.53
48041;BME280;33815;48.386;11.738;2024-03-02T12:58:41;95368.91;;;14.27;68.07
48041;BME280;33815;48.386;11.738;2024-03-02T13:01:07;95371.47;;;13.60;66.97